Time;durP1;ratioP1;P1;durP2;ratioP2;P2;SDS_P1;SDS_P2;PMS_P1;PMS_P2;Temp;Humidity;BMP_temperature;BMP_pressure;BME280_temperature;BME280_humidity;BME280_pressure;Samples;Min_cycle;Max_cycle;Signal;HPM_P1;HPM_P2
2021/12/17 00:01:08;;;;;;;3.65;2.95;;;21.30;44.30;;;;;;5034087;28;20112;-72
2021/12/17 00:03:44;;;;;;;3.55;2.65;;;21.30;44.30;;;;;;5042605;28;20021;-72
2021/12/17 00:06:18;;;;;;;3.83;2.90;;;21.30;44.30;;;;;;5052573;28;20082;-72
2021/12/17 00:08:47;;;;;;;4.00;3.10;;;21.30;44.40;;;;;;5034727;28;20510;-72
2021/12/17 00:11:14;;;;;;;3.97;2.83;;;21.20;44.30;;;;;;5035276;28;20053;-72
2021/12/17 00:13:42;;;;;;;3.85;2.80;;;21.30;44.30;;;;;;5035266;28;20505;-72
2021/12/17 00:16:15;;;;;;;4.30;2.85;;;21.30;44.30;;;;;;5033949;28;20013;-72
2021/12/17 00:18:58;;;;;;;3.55;2.60;;;21.30;44.30;;;;;;5048409;28;20167;-72
2021/12/17 00:48:37;;;;;;;4.00;3.00;;;21.20;44.50;;;;;;5034617;28;20036;-72
2021/12/17 00:53:50;;;;;;;3.85;2.80;;;21.20;44.40;;;;;;5034421;28;20108;-72
2021/12/17 00:56:16;;;;;;;3.88;2.67;;;21.20;44.40;;;;;;5034405;28;20026;-72
2021/12/17 00:58:42;;;;;;;3.85;3.00;;;21.20;44.40;;;;;;5034330;28;20079;-72
2021/12/17 01:01:08;;;;;;;4.03;3.03;;;21.20;44.50;;;;;;5034293;28;20433;-72
2021/12/17 01:03:33;;;;;;;4.35;3.03;;;21.20;45.30;;;;;;5040002;28;20112;-72
2021/12/17 01:05:59;;;;;;;3.22;2.53;;;21.20;44.40;;;;;;5036379;28;20064;-72
2021/12/17 01:08:25;;;;;;;3.67;2.50;;;21.20;44.40;;;;;;5034197;28;20025;-72
2021/12/17 01:10:53;;;;;;;3.78;2.60;;;21.20;44.40;;;;;;5032799;28;20026;-72
2021/12/17 01:13:20;;;;;;;4.03;2.63;;;21.30;44.40;;;;;;5033816;28;20017;-72
2021/12/17 01:15:45;;;;;;;4.45;2.88;;;21.20;44.30;;;;;;5032828;28;20372;-72
2021/12/17 01:18:16;;;;;;;3.72;2.70;;;21.20;44.30;;;;;;5043326;28;20028;-72
2021/12/17 01:36:29;;;;;;;3.65;2.60;;;21.20;44.40;;;;;;5033949;28;20037;-72
2021/12/17 01:41:45;;;;;;;3.60;2.70;;;21.20;44.50;;;;;;5033806;28;20033;-73
2021/12/17 01:44:09;;;;;;;3.60;2.63;;;21.20;44.40;;;;;;5033417;28;20128;-72
2021/12/17 01:46:37;;;;;;;3.03;2.33;;;21.20;44.50;;;;;;5033279;28;20032;-72
2021/12/17 01:49:26;;;;;;;3.95;2.88;;;21.20;44.50;;;;;;5033523;28;20401;-72
2021/12/17 02:00:07;;;;;;;3.17;2.60;;;21.20;44.60;;;;;;5033840;28;20033;-72
2021/12/17 02:02:42;;;;;;;3.60;2.70;;;21.20;44.60;;;;;;5031783;28;20387;-72
2021/12/17 02:05:09;;;;;;;3.97;2.80;;;21.20;44.60;;;;;;5043694;28;20017;-72
2021/12/17 02:07:35;;;;;;;3.72;2.80;;;21.20;44.60;;;;;;5037242;28;20021;-72
2021/12/17 02:20:43;;;;;;;3.35;2.35;;;21.20;44.50;;;;;;5053099;28;20021;-72
2021/12/17 02:29:01;;;;;;;3.15;2.40;;;21.20;44.60;;;;;;5052626;28;20076;-72
2021/12/17 02:31:32;;;;;;;3.53;2.53;;;21.20;44.60;;;;;;5039157;28;20026;-72
2021/12/17 02:34:03;;;;;;;3.93;2.63;;;21.20;44.60;;;;;;5032874;28;20026;-72
2021/12/17 02:36:32;;;;;;;3.50;2.53;;;21.10;44.60;;;;;;5031630;28;20271;-72
2021/12/17 02:39:24;;;;;;;3.25;2.33;;;21.10;44.60;;;;;;5031365;28;20064;-72
2021/12/17 02:47:14;;;;;;;3.72;2.45;;;21.10;44.60;;;;;;5032790;28;20505;-72
2021/12/17 02:49:43;;;;;;;4.63;2.50;;;21.10;44.70;;;;;;5031306;28;20029;-72
2021/12/17 02:52:09;;;;;;;3.17;2.42;;;21.10;44.60;;;;;;5032648;28;20470;-72
2021/12/17 02:54:37;;;;;;;4.15;2.60;;;21.10;44.50;;;;;;5032445;28;20025;-72
2021/12/17 02:57:06;;;;;;;3.55;2.50;;;21.20;44.60;;;;;;5031307;28;20030;-72
2021/12/17 02:59:35;;;;;;;3.47;2.58;;;21.20;44.60;;;;;;5032539;28;20029;-72
2021/12/17 03:02:03;;;;;;;3.35;2.45;;;21.10;44.50;;;;;;5032535;28;20017;-72
2021/12/17 03:04:30;;;;;;;3.00;2.15;;;21.20;44.60;;;;;;5041835;28;20018;-72
2021/12/17 03:06:56;;;;;;;3.33;2.58;;;21.20;44.60;;;;;;5041194;28;20025;-72
2021/12/17 03:09:36;;;;;;;3.40;2.38;;;21.20;44.60;;;;;;5052498;28;20097;-72
2021/12/17 03:12:08;;;;;;;3.72;2.63;;;21.20;44.60;;;;;;5052559;28;20389;-72
2021/12/17 03:14:41;;;;;;;3.60;2.55;;;21.20;44.60;;;;;;5052187;28;20021;-72
2021/12/17 03:17:10;;;;;;;;;;;21.10;44.50;;;;;;5052116;28;20389;-72
2021/12/17 03:25:04;;;;;;;3.70;2.60;;;21.10;44.80;;;;;;5032313;28;20032;-72
2021/12/17 03:27:29;;;;;;;3.28;2.40;;;21.10;44.80;;;;;;5032153;28;20029;-72
2021/12/17 03:29:55;;;;;;;3.30;2.55;;;21.10;44.70;;;;;;5030771;28;20501;-72
2021/12/17 03:32:21;;;;;;;3.25;2.35;;;21.10;44.70;;;;;;5031060;28;20044;-72
2021/12/17 03:34:46;;;;;;;2.83;2.17;;;21.00;44.60;;;;;;5032536;28;20159;-72
2021/12/17 03:37:12;;;;;;;3.20;2.17;;;21.10;44.70;;;;;;5032222;28;20413;-72
2021/12/17 03:39:38;;;;;;;4.00;2.55;;;21.10;44.70;;;;;;5030767;28;20021;-72
2021/12/17 03:42:07;;;;;;;2.83;2.13;;;21.00;44.60;;;;;;5032204;28;20022;-72
2021/12/17 03:44:32;;;;;;;3.30;2.03;;;21.10;44.60;;;;;;5035200;28;20028;-72
2021/12/17 03:46:58;;;;;;;3.63;2.47;;;21.10;44.70;;;;;;5034373;28;20029;-72
2021/12/17 03:49:24;;;;;;;3.72;2.33;;;21.10;44.50;;;;;;5034334;28;20021;-72
2021/12/17 03:52:04;;;;;;;3.95;2.50;;;21.10;44.60;;;;;;5035491;28;20033;-72
2021/12/17 03:54:35;;;;;;;3.05;2.45;;;21.10;44.60;;;;;;5035662;28;20022;-72
2021/12/17 03:57:01;;;;;;;3.10;2.20;;;21.10;44.60;;;;;;5035756;28;20267;-72
2021/12/17 03:59:27;;;;;;;4.20;2.40;;;21.10;44.60;;;;;;5035617;28;20048;-72
2021/12/17 04:01:52;;;;;;;3.05;2.25;;;21.10;44.60;;;;;;5034217;28;20029;-72
2021/12/17 04:04:18;;;;;;;2.63;2.10;;;21.10;44.50;;;;;;5044772;28;20048;-72
2021/12/17 04:06:44;;;;;;;3.40;1.95;;;21.10;44.60;;;;;;5035180;28;20439;-72
2021/12/17 04:09:09;;;;;;;3.20;2.42;;;21.10;44.60;;;;;;5035230;28;20029;-72
2021/12/17 04:11:35;;;;;;;3.00;2.10;;;21.10;44.60;;;;;;5035203;28;20471;-72
2021/12/17 04:14:01;;;;;;;3.13;2.20;;;21.00;44.50;;;;;;5035107;28;20045;-72
2021/12/17 04:16:30;;;;;;;2.92;2.28;;;21.10;44.50;;;;;;5035200;28;20018;-72
2021/12/17 04:18:57;;;;;;;3.30;2.40;;;21.10;44.50;;;;;;5050763;28;20599;-72
2021/12/17 04:21:22;;;;;;;3.17;2.33;;;21.10;44.50;;;;;;5055132;28;20383;-72
2021/12/17 04:23:50;;;;;;;2.40;1.77;;;21.10;44.50;;;;;;5054977;28;20036;-72
2021/12/17 04:26:17;;;;;;;3.13;2.10;;;21.10;44.60;;;;;;5054863;28;20063;-72
2021/12/17 04:28:46;;;;;;;3.38;2.10;;;21.10;44.60;;;;;;5053290;28;20041;-72
2021/12/17 04:31:13;;;;;;;2.70;2.10;;;21.10;44.60;;;;;;5052749;28;20017;-72
2021/12/17 04:33:40;;;;;;;3.15;2.22;;;21.10;44.60;;;;;;5034948;28;20176;-72
2021/12/17 04:36:07;;;;;;;3.72;2.30;;;21.10;44.60;;;;;;5034772;28;20450;-72
2021/12/17 04:38:33;;;;;;;2.95;2.20;;;21.10;44.60;;;;;;5034833;28;20021;-72
2021/12/17 04:41:22;;;;;;;2.95;2.20;;;21.10;44.60;;;;;;5034527;28;20021;-72
2021/12/17 04:43:59;;;;;;;3.72;2.20;;;21.10;44.60;;;;;;5034880;28;20065;-72
2021/12/17 04:57:27;;;;;;;2.45;1.90;;;21.00;44.60;;;;;;5034687;28;20148;-72
2021/12/17 04:59:52;;;;;;;4.30;2.00;;;21.00;44.60;;;;;;5034229;28;20022;-73
2021/12/17 05:02:18;;;;;;;2.63;1.92;;;21.00;44.70;;;;;;5034306;28;20032;-72
2021/12/17 05:04:44;;;;;;;2.95;2.05;;;21.00;44.60;;;;;;5043635;28;20022;-72
2021/12/17 05:07:13;;;;;;;2.97;1.85;;;21.10;44.70;;;;;;5045045;28;20501;-72
2021/12/17 05:09:58;;;;;;;3.15;1.92;;;21.10;44.70;;;;;;5052840;28;20473;-72
2021/12/17 05:23:06;;;;;;;2.25;1.75;;;21.00;44.70;;;;;;5034232;28;20030;-72
2021/12/17 05:25:31;;;;;;;2.95;1.98;;;21.00;44.60;;;;;;5033893;28;20026;-72
2021/12/17 05:28:01;;;;;;;3.13;1.92;;;21.00;44.60;;;;;;5033671;28;20047;-71
2021/12/17 05:30:31;;;;;;;2.55;1.65;;;21.10;44.70;;;;;;5032607;28;20478;-72
2021/12/17 05:32:57;;;;;;;2.90;2.00;;;21.10;44.70;;;;;;5033518;28;20017;-72
2021/12/17 05:35:23;;;;;;;2.10;1.80;;;21.10;44.70;;;;;;5033672;28;20540;-72
2021/12/17 05:37:49;;;;;;;2.33;1.80;;;21.10;44.60;;;;;;5033433;28;20022;-72
2021/12/17 05:40:15;;;;;;;2.60;1.77;;;21.10;44.60;;;;;;5033598;28;20017;-72
2021/12/17 05:42:42;;;;;;;2.70;1.88;;;21.10;44.70;;;;;;5032225;28;20108;-72
2021/12/17 05:45:21;;;;;;;3.00;2.03;;;21.10;44.70;;;;;;5033520;28;20441;-72
2021/12/17 05:47:48;;;;;;;2.55;1.98;;;21.10;44.60;;;;;;5033494;28;20017;-72
2021/12/17 05:50:14;;;;;;;2.20;1.80;;;21.20;44.70;;;;;;5033478;28;20022;-72
2021/12/17 05:52:39;;;;;;;3.03;1.67;;;21.20;44.70;;;;;;5033327;28;20478;-72
2021/12/17 05:55:06;;;;;;;2.10;1.63;;;21.20;44.60;;;;;;5032106;28;20028;-72
2021/12/17 05:57:31;;;;;;;2.22;1.63;;;21.30;44.70;;;;;;5031856;28;20037;-72
2021/12/17 05:59:57;;;;;;;1.83;1.60;;;21.30;44.60;;;;;;5033466;28;20089;-72
2021/12/17 06:02:22;;;;;;;2.63;1.80;;;21.40;44.50;;;;;;5032933;28;20022;-72
2021/12/17 06:04:48;;;;;;;2.03;1.52;;;21.50;44.60;;;;;;5041265;28;20017;-72
2021/12/17 06:07:23;;;;;;;1.75;1.40;;;21.50;44.40;;;;;;5043865;28;20407;-71
2021/12/17 06:09:48;;;;;;;2.63;1.70;;;21.60;44.30;;;;;;5052831;28;20025;-72
2021/12/17 06:12:14;;;;;;;2.13;1.40;;;21.70;44.40;;;;;;5052907;28;20027;-72
2021/12/17 06:14:39;;;;;;;2.25;1.55;;;21.80;44.20;;;;;;5053039;28;20106;-72
2021/12/17 06:17:05;;;;;;;2.20;1.67;;;21.80;44.10;;;;;;5050996;28;20026;-72
2021/12/17 06:19:30;;;;;;;2.15;1.60;;;21.90;44.10;;;;;;5031922;28;20417;-72
2021/12/17 06:21:58;;;;;;;2.35;1.50;;;21.90;43.90;;;;;;5032835;28;20084;-72
2021/12/17 06:24:24;;;;;;;1.95;1.55;;;22.00;43.90;;;;;;5031596;28;20029;-72
2021/12/17 06:26:49;;;;;;;2.78;1.55;;;22.00;43.80;;;;;;5032913;28;20030;-72
2021/12/17 06:29:16;;;;;;;1.60;1.30;;;22.10;43.80;;;;;;5032741;28;20554;-72
2021/12/17 06:31:42;;;;;;;1.80;1.50;;;22.10;43.60;;;;;;5031570;28;20096;-72
2021/12/17 06:34:08;;;;;;;1.92;1.10;;;22.20;43.70;;;;;;5031421;28;20041;-72
2021/12/17 06:36:33;;;;;;;2.00;1.48;;;22.20;43.60;;;;;;5032784;28;20075;-72
2021/12/17 06:38:59;;;;;;;1.88;1.30;;;22.20;43.50;;;;;;5032876;28;20026;-72
2021/12/17 06:41:24;;;;;;;1.75;1.30;;;22.20;43.60;;;;;;5032729;28;20100;-72
2021/12/17 06:43:50;;;;;;;1.60;1.40;;;22.30;43.50;;;;;;5032773;28;20508;-72
2021/12/17 06:46:29;;;;;;;1.80;1.25;;;22.30;43.50;;;;;;5032786;28;20364;-72
2021/12/17 06:49:09;;;;;;;1.98;1.50;;;22.30;43.30;;;;;;5031590;28;20478;-72
2021/12/17 07:10:39;;;;;;;1.60;1.10;;;22.50;43.20;;;;;;5033082;28;20040;-72
2021/12/17 07:21:31;;;;;;;1.73;1.23;;;22.60;43.10;;;;;;5056959;28;20033;-72
2021/12/17 07:39:34;;;;;;;2.17;1.40;;;22.70;43.10;;;;;;5036618;28;20112;-72
2021/12/17 07:41:59;;;;;;;1.70;1.17;;;22.70;43.10;;;;;;5036085;28;20045;-72
2021/12/17 07:44:25;;;;;;;2.22;1.38;;;22.80;43.10;;;;;;5034946;28;20029;-72
2021/12/17 07:46:51;;;;;;;1.45;1.10;;;22.80;43.10;;;;;;5034885;28;20111;-72
2021/12/17 07:49:17;;;;;;;2.22;1.60;;;22.80;43.00;;;;;;5034908;28;20029;-72
2021/12/17 07:51:42;;;;;;;2.45;1.50;;;22.80;43.00;;;;;;5034958;28;20026;-72
2021/12/17 07:54:08;;;;;;;1.90;1.25;;;22.80;42.90;;;;;;5036084;28;20500;-72
2021/12/17 07:56:37;;;;;;;1.38;1.25;;;22.80;42.90;;;;;;5036004;28;20096;-72
2021/12/17 07:59:04;;;;;;;2.63;1.20;;;22.80;42.90;;;;;;5036208;28;20018;-72
2021/12/17 08:01:30;;;;;;;1.80;1.30;;;22.90;43.00;;;;;;5036056;28;20037;-72
2021/12/17 08:03:55;;;;;;;1.80;1.27;;;22.90;42.80;;;;;;5045284;28;20025;-72
2021/12/17 08:06:21;;;;;;;1.35;1.00;;;22.90;42.80;;;;;;5035805;28;20037;-72
2021/12/17 08:08:47;;;;;;;1.58;1.30;;;22.90;42.80;;;;;;5035848;28;20041;-72
2021/12/17 08:11:12;;;;;;;1.55;1.10;;;22.90;42.80;;;;;;5035965;28;20026;-72
2021/12/17 08:13:38;;;;;;;2.20;1.25;;;22.90;42.80;;;;;;5035853;28;20048;-72
2021/12/17 08:26:56;;;;;;;1.65;1.30;;;22.90;42.80;;;;;;5056251;28;20448;-72
2021/12/17 08:31:49;;;;;;;1.45;1.20;;;22.90;42.80;;;;;;5048249;28;20057;-72
2021/12/17 08:34:14;;;;;;;1.67;1.20;;;22.90;42.80;;;;;;5035520;28;20053;-72
2021/12/17 08:36:40;;;;;;;2.08;1.15;;;22.90;42.80;;;;;;5035266;28;20051;-72
2021/12/17 08:39:05;;;;;;;1.40;1.10;;;22.90;42.80;;;;;;5035572;28;20466;-72
2021/12/17 08:41:31;;;;;;;1.92;1.38;;;22.90;42.80;;;;;;5035534;28;20489;-72
2021/12/17 08:43:56;;;;;;;2.85;1.50;;;23.00;42.80;;;;;;5035206;28;20474;-72
2021/12/17 08:46:22;;;;;;;1.73;1.23;;;23.00;42.70;;;;;;5035398;28;20427;-72
2021/12/17 08:48:47;;;;;;;1.73;1.30;;;23.00;42.80;;;;;;5035470;28;20105;-72
2021/12/17 08:51:13;;;;;;;1.90;1.15;;;23.00;42.70;;;;;;5035239;28;20026;-72
2021/12/17 08:53:38;;;;;;;1.60;1.10;;;23.00;42.70;;;;;;5034103;28;20117;-72
2021/12/17 08:56:05;;;;;;;2.17;1.40;;;23.00;43.70;;;;;;5035289;28;20445;-72
2021/12/17 08:58:31;;;;;;;1.52;1.10;;;23.00;42.70;;;;;;5035062;28;20032;-72
2021/12/17 09:00:57;;;;;;;1.42;1.13;;;23.00;42.70;;;;;;5035028;28;20021;-72
2021/12/17 09:03:23;;;;;;;1.80;1.50;;;23.00;42.70;;;;;;5040639;28;20027;-72
2021/12/17 09:05:49;;;;;;;2.22;1.33;;;23.00;42.70;;;;;;5037552;28;20037;-72
2021/12/17 09:08:15;;;;;;;1.80;1.30;;;23.00;42.70;;;;;;5033725;28;20044;-72
2021/12/17 09:10:43;;;;;;;1.88;1.30;;;23.10;42.70;;;;;;5034950;28;20017;-72
2021/12/17 09:13:09;;;;;;;2.38;1.38;;;23.10;42.70;;;;;;5034880;28;20101;-72
2021/12/17 09:15:35;;;;;;;1.10;1.00;;;23.00;42.60;;;;;;5034799;28;20449;-73
2021/12/17 09:18:00;;;;;;;1.80;1.20;;;23.10;42.70;;;;;;5042789;28;20386;-72
2021/12/17 09:20:26;;;;;;;2.58;1.30;;;23.00;42.70;;;;;;5054615;28;20036;-72
2021/12/17 09:22:52;;;;;;;2.50;1.40;;;23.10;42.80;;;;;;5054945;28;20072;-72
2021/12/17 09:25:18;;;;;;;1.65;1.13;;;23.10;42.70;;;;;;5054703;28;20025;-72
2021/12/17 09:27:44;;;;;;;1.35;1.05;;;23.10;42.70;;;;;;5054196;28;20023;-72
2021/12/17 09:30:13;;;;;;;1.77;1.20;;;23.10;42.70;;;;;;5054530;28;20100;-72
2021/12/17 09:32:40;;;;;;;1.85;1.30;;;23.10;42.70;;;;;;5040315;28;20036;-72
2021/12/17 09:35:08;;;;;;;2.03;1.23;;;23.10;42.70;;;;;;5033990;28;20068;-72
2021/12/17 09:37:35;;;;;;;1.75;1.02;;;23.10;42.70;;;;;;5034541;28;20045;-72
2021/12/17 09:40:01;;;;;;;1.38;1.10;;;23.10;42.70;;;;;;5032485;28;20085;-72
2021/12/17 09:42:27;;;;;;;1.77;1.08;;;23.10;42.70;;;;;;5033582;28;20041;-72
2021/12/17 09:44:53;;;;;;;1.63;1.17;;;23.10;42.60;;;;;;5033887;28;20049;-72
2021/12/17 09:47:18;;;;;;;1.55;1.20;;;23.10;42.70;;;;;;5034002;28;20025;-72
2021/12/17 09:49:45;;;;;;;1.33;1.00;;;23.10;42.70;;;;;;5033921;28;20538;-72
2021/12/17 09:52:11;;;;;;;1.80;1.20;;;23.10;42.70;;;;;;5032867;28;20041;-72
2021/12/17 09:54:36;;;;;;;1.23;1.08;;;23.10;42.70;;;;;;5032501;28;20068;-72
2021/12/17 09:57:03;;;;;;;1.65;1.10;;;23.10;42.70;;;;;;5033821;28;20529;-72
2021/12/17 09:59:28;;;;;;;1.30;1.00;;;23.10;42.70;;;;;;5032479;28;20071;-72
2021/12/17 10:01:54;;;;;;;2.20;1.00;;;23.10;42.70;;;;;;5032418;28;20026;-72
2021/12/17 10:04:28;;;;;;;1.85;1.17;;;23.10;42.70;;;;;;5043182;28;20024;-72
2021/12/17 10:07:16;;;;;;;1.33;1.02;;;23.10;42.70;;;;;;5042378;28;20021;-72
2021/12/17 10:09:55;;;;;;;1.48;1.08;;;23.10;42.60;;;;;;5052405;28;20048;-72
2021/12/17 10:12:32;;;;;;;2.03;1.20;;;23.10;42.60;;;;;;5053573;28;20025;-72
2021/12/17 10:15:11;;;;;;;1.52;1.08;;;23.10;42.60;;;;;;5053478;28;20028;-72
2021/12/17 10:18:01;;;;;;;1.25;0.95;;;23.10;42.70;;;;;;5048825;28;20021;-72
2021/12/17 10:20:49;;;;;;;0.98;0.82;;;23.10;42.60;;;;;;5033485;28;20017;-72
2021/12/17 10:23:14;;;;;;;1.30;0.90;;;23.10;42.70;;;;;;5032943;28;20099;-72
2021/12/17 10:25:44;;;;;;;1.02;0.85;;;23.10;42.80;;;;;;5032109;28;20025;-72
2021/12/17 10:28:11;;;;;;;1.35;0.98;;;23.10;42.70;;;;;;5033406;28;20060;-72
2021/12/17 10:30:39;;;;;;;1.13;1.00;;;23.10;42.80;;;;;;5032310;28;20516;-72
2021/12/17 10:33:08;;;;;;;1.35;1.08;;;23.10;42.80;;;;;;5033545;28;20021;-72
2021/12/17 10:35:35;;;;;;;1.42;0.82;;;23.10;42.70;;;;;;5033173;28;20516;-72
2021/12/17 10:38:05;;;;;;;1.80;1.20;;;23.10;42.70;;;;;;5033303;28;20021;-72
2021/12/17 10:40:36;;;;;;;1.92;0.80;;;23.10;42.70;;;;;;5033644;28;20067;-72
2021/12/17 10:43:15;;;;;;;1.25;1.10;;;23.10;42.70;;;;;;5033289;28;20032;-72
2021/12/17 10:45:45;;;;;;;1.40;1.00;;;23.10;42.70;;;;;;5033355;28;20097;-72
2021/12/17 10:48:28;;;;;;;1.27;0.95;;;23.10;42.70;;;;;;5033218;28;20500;-72
2021/12/17 10:51:17;;;;;;;1.02;0.90;;;23.10;42.70;;;;;;5033228;28;20018;-73
2021/12/17 10:53:54;;;;;;;0.80;0.73;;;23.10;42.70;;;;;;5036864;28;20060;-72
2021/12/17 10:56:47;;;;;;;1.00;0.90;;;23.10;42.70;;;;;;5037194;28;20025;-72
2021/12/17 10:59:27;;;;;;;1.02;0.80;;;23.10;42.60;;;;;;5037265;28;20018;-72
2021/12/17 11:01:58;;;;;;;0.90;0.77;;;23.10;42.70;;;;;;5037103;28;20073;-73
2021/12/17 11:04:29;;;;;;;1.00;0.93;;;23.10;42.80;;;;;;5050017;28;20133;-73
2021/12/17 11:07:04;;;;;;;1.02;0.90;;;23.10;42.70;;;;;;5047995;28;20525;-72
2021/12/17 11:09:41;;;;;;;1.13;0.88;;;23.10;42.80;;;;;;5037086;28;20486;-72
2021/12/17 11:12:36;;;;;;;1.42;0.80;;;23.10;42.70;;;;;;5035509;28;20025;-72
2021/12/17 11:15:20;;;;;;;1.60;0.80;;;23.10;42.70;;;;;;5036857;28;20239;-72
2021/12/17 11:17:57;;;;;;;0.98;0.80;;;23.10;42.70;;;;;;5042560;28;20021;-72
2021/12/17 11:20:27;;;;;;;0.88;0.70;;;23.10;42.80;;;;;;5055724;28;20094;-72
2021/12/17 11:22:54;;;;;;;0.65;0.57;;;23.10;42.80;;;;;;5056700;28;20159;-72
2021/12/17 11:25:21;;;;;;;1.10;0.88;;;23.10;42.80;;;;;;5056605;28;20028;-72
2021/12/17 11:27:47;;;;;;;0.80;0.80;;;23.10;42.80;;;;;;5056433;28;20028;-72
2021/12/17 11:30:19;;;;;;;0.82;0.63;;;23.10;42.80;;;;;;5056518;28;20035;-72
2021/12/17 11:32:46;;;;;;;0.60;0.60;;;23.10;42.80;;;;;;5041867;28;20026;-72
2021/12/17 11:35:14;;;;;;;0.80;0.70;;;23.10;42.80;;;;;;5036544;28;20425;-72
2021/12/17 11:37:42;;;;;;;0.70;0.60;;;23.10;42.80;;;;;;5035200;28;20025;-72
2021/12/17 11:40:17;;;;;;;0.80;0.80;;;23.10;42.80;;;;;;5036991;28;20021;-72
2021/12/17 11:43:37;;;;;;;0.57;0.50;;;23.10;42.70;;;;;;5034926;28;20499;-72
2021/12/17 11:46:12;;;;;;;1.13;0.80;;;23.10;42.60;;;;;;5014252;28;20026;-72
2021/12/17 11:48:38;;;;;;;1.05;0.70;;;23.10;42.80;;;;;;5036556;28;20133;-72
2021/12/17 11:51:14;;;;;;;0.50;0.50;;;23.10;42.80;;;;;;5036416;28;20462;-72
2021/12/17 11:53:52;;;;;;;0.70;0.70;;;23.10;42.80;;;;;;5036037;28;20029;-72
2021/12/17 11:56:32;;;;;;;0.80;0.60;;;23.10;42.70;;;;;;5034905;28;20486;-72
2021/12/17 11:58:58;;;;;;;1.23;0.60;;;23.10;42.70;;;;;;5036217;28;20028;-72
2021/12/17 12:02:01;;;;;;;0.80;0.55;;;23.10;42.80;;;;;;5034867;28;20022;-72
2021/12/17 12:04:32;;;;;;;1.02;0.50;;;23.10;42.70;;;;;;5044392;28;20022;-72
2021/12/17 12:07:02;;;;;;;0.60;0.60;;;23.10;42.80;;;;;;5044792;28;20367;-72
2021/12/17 12:09:58;;;;;;;0.75;0.47;;;23.10;42.80;;;;;;5055745;28;20075;-72
2021/12/17 12:12:34;;;;;;;1.08;0.70;;;23.10;42.70;;;;;;5055853;28;20087;-72
2021/12/17 12:15:23;;;;;;;0.93;0.60;;;23.10;42.80;;;;;;5054427;28;20055;-72
2021/12/17 12:17:57;;;;;;;0.70;0.50;;;23.10;42.70;;;;;;5049270;28;20370;-72
2021/12/17 12:20:48;;;;;;;0.70;0.55;;;23.10;42.80;;;;;;5035528;28;20026;-72
2021/12/17 12:23:19;;;;;;;0.65;0.55;;;23.10;42.80;;;;;;5035583;28;20018;-72
2021/12/17 12:26:16;;;;;;;0.50;0.50;;;23.10;42.90;;;;;;5035682;28;20068;-72
2021/12/17 12:28:45;;;;;;;0.57;0.47;;;23.10;42.80;;;;;;5034691;28;20045;-72
2021/12/17 12:31:19;;;;;;;0.80;0.57;;;23.10;42.90;;;;;;5035402;28;20026;-72
2021/12/17 12:34:00;;;;;;;0.65;0.40;;;23.10;42.80;;;;;;5043323;28;20037;-72
2021/12/17 12:36:49;;;;;;;0.63;0.52;;;23.10;42.80;;;;;;5045906;28;20026;-72
2021/12/17 12:39:26;;;;;;;0.43;0.40;;;23.10;42.70;;;;;;5053216;28;20437;-72
2021/12/17 12:42:17;;;;;;;0.68;0.43;;;23.10;42.80;;;;;;5045562;28;20025;-72
2021/12/17 12:44:42;;;;;;;1.10;0.50;;;23.10;42.70;;;;;;5055209;28;20025;-72
2021/12/17 12:47:26;;;;;;;0.82;0.60;;;23.10;42.80;;;;;;5053536;28;20089;-72
2021/12/17 12:50:04;;;;;;;0.57;0.50;;;23.10;42.80;;;;;;5048807;28;20379;-72
2021/12/17 12:52:44;;;;;;;0.30;0.30;;;23.10;42.80;;;;;;5034653;28;20501;-72
2021/12/17 12:55:15;;;;;;;0.70;0.50;;;23.10;42.80;;;;;;5035844;28;20474;-72
2021/12/17 12:57:47;;;;;;;0.50;0.50;;;23.10;42.80;;;;;;5034856;28;20025;-72
2021/12/17 13:00:27;;;;;;;0.40;0.40;;;23.10;42.80;;;;;;5035095;28;20018;-72
2021/12/17 13:03:14;;;;;;;0.63;0.52;;;23.10;42.80;;;;;;5050883;28;20037;-72
2021/12/17 13:05:41;;;;;;;1.27;0.60;;;23.10;42.80;;;;;;5038160;28;20026;-72
2021/12/17 13:08:08;;;;;;;0.65;0.50;;;23.00;42.80;;;;;;5051568;28;20033;-72
2021/12/17 13:10:40;;;;;;;0.95;0.50;;;23.10;42.80;;;;;;5046009;28;20025;-72
2021/12/17 13:13:29;;;;;;;0.57;0.50;;;23.10;42.80;;;;;;5033203;28;20493;-72
2021/12/17 13:16:34;;;;;;;0.70;0.40;;;23.10;42.80;;;;;;5053364;28;20029;-72
2021/12/17 13:24:25;;;;;;;0.45;0.40;;;23.00;42.80;;;;;;5040298;28;20292;-72
2021/12/17 13:26:57;;;;;;;0.68;0.50;;;23.00;42.80;;;;;;5035974;28;20030;-72
2021/12/17 13:29:33;;;;;;;0.40;0.40;;;23.00;42.90;;;;;;5044696;28;20498;-72
2021/12/17 13:32:03;;;;;;;0.85;0.50;;;23.00;42.80;;;;;;5034201;28;20025;-72
2021/12/17 13:34:39;;;;;;;0.40;0.30;;;23.00;42.90;;;;;;5051055;28;20534;-72
2021/12/17 13:37:08;;;;;;;0.43;0.43;;;23.00;42.80;;;;;;5051168;28;20025;-72
2021/12/17 13:39:42;;;;;;;0.40;0.30;;;23.00;42.80;;;;;;5052402;28;20017;-72
2021/12/17 13:42:08;;;;;;;0.60;0.45;;;23.00;42.80;;;;;;5052137;28;20525;-72
2021/12/17 13:44:39;;;;;;;0.85;0.50;;;23.00;42.90;;;;;;5050646;28;20029;-72
2021/12/17 13:47:11;;;;;;;0.40;0.38;;;23.00;42.80;;;;;;5052718;28;20111;-72
2021/12/17 13:49:37;;;;;;;1.45;0.40;;;23.00;42.90;;;;;;5042927;28;20066;-72
2021/12/17 13:52:04;;;;;;;0.28;0.28;;;23.00;42.90;;;;;;5041756;28;20033;-72
2021/12/17 13:54:30;;;;;;;0.60;0.40;;;23.00;42.90;;;;;;5053608;28;20017;-72
2021/12/17 13:57:01;;;;;;;0.47;0.38;;;23.00;42.90;;;;;;5050639;28;20536;-72
2021/12/17 13:59:31;;;;;;;0.30;0.30;;;22.90;42.80;;;;;;5053553;28;20083;-72
2021/12/17 14:01:57;;;;;;;0.40;0.40;;;23.00;42.90;;;;;;5045890;28;20075;-72
2021/12/17 14:04:23;;;;;;;0.40;0.40;;;23.00;42.90;;;;;;5042317;28;20029;-72
2021/12/17 14:06:53;;;;;;;0.57;0.45;;;23.00;43.00;;;;;;5045562;28;20028;-72
2021/12/17 14:09:20;;;;;;;0.38;0.38;;;23.00;43.00;;;;;;5033611;28;20021;-72
2021/12/17 14:11:46;;;;;;;0.68;0.40;;;23.00;43.00;;;;;;5033954;28;20049;-72
2021/12/17 14:14:26;;;;;;;0.30;0.30;;;22.90;43.00;;;;;;5031814;28;20025;-73
2021/12/17 14:17:01;;;;;;;0.73;0.40;;;23.00;42.90;;;;;;5033694;28;20030;-72
2021/12/17 14:19:40;;;;;;;0.30;0.30;;;22.90;42.90;;;;;;5046879;28;20403;-72
2021/12/17 14:22:26;;;;;;;0.35;0.30;;;22.90;43.00;;;;;;5051939;28;20025;-72
2021/12/17 14:24:51;;;;;;;0.35;0.30;;;22.90;42.90;;;;;;5053392;28;20385;-72
2021/12/17 14:27:17;;;;;;;2.35;0.40;;;22.90;43.00;;;;;;5052664;28;20033;-72
2021/12/17 14:29:42;;;;;;;0.20;0.20;;;22.90;43.10;;;;;;5053131;28;20076;-72
2021/12/17 14:32:16;;;;;;;0.35;0.30;;;22.90;43.10;;;;;;5043475;28;20501;-72
2021/12/17 14:34:42;;;;;;;0.55;0.40;;;22.90;43.00;;;;;;5033096;28;20029;-72
2021/12/17 14:37:07;;;;;;;1.02;0.43;;;22.90;43.10;;;;;;5034147;28;20025;-72
2021/12/17 14:39:40;;;;;;;0.57;0.40;;;22.90;43.10;;;;;;5033539;28;20032;-72
2021/12/17 14:42:07;;;;;;;0.70;0.38;;;22.90;43.10;;;;;;5038810;28;20013;-72
2021/12/17 14:44:51;;;;;;;0.65;0.30;;;22.90;43.10;;;;;;5053451;28;20401;-72
2021/12/17 14:59:40;;;;;;;0.50;0.38;;;22.80;43.10;;;;;;5033829;28;20448;-72
2021/12/17 15:01:13;;;;;;;0.30;0.25;;;22.80;43.20;;;;;;5033571;28;20032;-72
2021/12/17 15:03:42;;;;;;;0.70;0.40;;;22.80;43.20;;;;;;5041741;28;20031;-72
2021/12/17 15:06:15;;;;;;;1.23;0.35;;;22.80;43.20;;;;;;5034980;28;20041;-72
2021/12/17 15:08:41;;;;;;;0.80;0.45;;;22.80;43.10;;;;;;5033380;28;20028;-72
2021/12/17 15:11:23;;;;;;;0.22;0.22;;;22.80;43.20;;;;;;5033386;28;20032;-72
2021/12/17 15:13:49;;;;;;;0.57;0.40;;;22.80;43.20;;;;;;5033882;28;20037;-72
2021/12/17 15:16:14;;;;;;;0.50;0.50;;;22.80;43.20;;;;;;5033015;28;20463;-72
2021/12/17 15:18:42;;;;;;;0.50;0.45;;;22.80;43.10;;;;;;5045835;28;20025;-72
2021/12/17 15:21:08;;;;;;;0.50;0.50;;;22.80;43.20;;;;;;5044871;28;20033;-72
2021/12/17 15:23:35;;;;;;;0.43;0.40;;;22.80;43.10;;;;;;5032934;28;20026;-72
2021/12/17 15:26:00;;;;;;;0.40;0.30;;;22.80;43.10;;;;;;5032982;28;20375;-72
2021/12/17 15:28:27;;;;;;;0.52;0.30;;;22.80;43.10;;;;;;5033057;28;20057;-72
2021/12/17 15:31:04;;;;;;;0.82;0.57;;;22.80;43.10;;;;;;5032947;28;20017;-72
2021/12/17 15:33:30;;;;;;;0.75;0.50;;;22.80;43.20;;;;;;5032957;28;20505;-72
2021/12/17 15:35:56;;;;;;;0.40;0.40;;;22.80;43.20;;;;;;5033629;28;20104;-72
2021/12/17 15:38:25;;;;;;;0.75;0.40;;;22.80;43.20;;;;;;5040251;28;20047;-72
2021/12/17 15:40:51;;;;;;;0.40;0.40;;;22.80;43.20;;;;;;5043510;28;20470;-72
2021/12/17 15:43:19;;;;;;;0.63;0.30;;;22.80;44.10;;;;;;5043957;28;20032;-72
2021/12/17 15:45:47;;;;;;;0.38;0.38;;;22.80;43.20;;;;;;5042629;28;20522;-72
2021/12/17 15:48:15;;;;;;;0.65;0.50;;;22.80;43.10;;;;;;5054747;28;20025;-72
2021/12/17 15:50:41;;;;;;;0.35;0.30;;;22.80;43.20;;;;;;5054478;28;20109;-72
2021/12/17 15:53:07;;;;;;;0.47;0.45;;;22.80;43.20;;;;;;5053329;28;20045;-72
2021/12/17 15:55:32;;;;;;;0.40;0.30;;;22.80;43.20;;;;;;5053297;28;20396;-72
2021/12/17 15:57:58;;;;;;;0.35;0.28;;;22.70;43.20;;;;;;5045139;28;20040;-72
2021/12/17 16:00:27;;;;;;;0.82;0.40;;;22.70;43.20;;;;;;5044868;28;20040;-72
2021/12/17 16:02:54;;;;;;;0.75;0.40;;;22.70;43.10;;;;;;5048590;28;20064;-72